Rosenthal, Texas
Current Conditions -  °F | °C
As of 1:15 AM on Saturday 25 Oct 2014 (Local Time) from KPWG Reporting Station
Clear Clear  
Wind Chill: 64°   Ceiling: Unl
Heat Index: 64°   Visibility: 10mi
Dew Point: 54°   Wind: 6mph
Humidity: 68%   Direction: 210°SSW
Pressure: 30.14"   Gusts: NA
Location:  31.3976°N, 97.22°W
Report Text: KPWG 250615Z AUTO 21005KT 10SM CLR 18/12 A3014 RMK AO1
Loading
Personal Weather Stations






























Interactive Weather Map
Tropical Storm Tracking
New forecast layout! Learn more

10-Day Weather Forecast

Advertisements
Track Severe Weather on mobile